SBSPSBRP

Guest
Details From SBSP - Sao Paulo Congonhas
To SBRP - LEITE LOPES
Flight Number -
Tags generated
Created
Modified
Stats Distance 162 nm / 300 km
Max Altitude 12,000 ft / 3,658 m
Waypoints 3
Social Downloads 2
Likes 0
Share VATSIM

Download

Looking for another format? Having issues loading an existing format? Contact us
Advertisement - Login to hide

Notes

Basic altitude profile: - Ascent Rate: 10000ft/min - Ascent Speed: 250kts - Cruise Altitude: 180ft - Cruise Speed: 275kts - Descent Rate: 5000ft/min - Descent Speed: 200kts Options: - Use NATs: yes - Use PACOTS: yes - Use low airways: yes - Use high airways: yes

Route

SBSP PSN SBRP

ID Type Via Altitude Latitude Longitude Leg Dist Tot Dist Heading (true) Name
O SBSP APT - 0 ft / 0 m -23.62669˚ -46.65538˚ - 0 nm - Sao Paulo Congonhas
PSN VOR - 12,000 ft / 3,658 m -21.98450˚ -47.34417˚ 105 nm 105 nm 339° / 339° PIRASSUNUNGA VOR-DME
O SBRP APT - 0 ft / 0 m -21.13417˚ -47.77419˚ 56 nm 162 nm 335° / 335° LEITE LOPES

Altitude Profile

Advertisement - Login to hide

Weather


0- 5 10 15 20 25 30 35+ Temperature / ° C

Clouds and Precipitation
Forecast for 2018-05-23 12:00 UTC. Updated 4 hours ago

Ground ~20,000 ft ~40,000 ft Winds

SBSP

Details ICAO SBSP (CGH)
Name Sao Paulo Congonhas
Region Brazil
Timezone America/Sao_Paulo (UTC-3.0)
Stats Elevation 2,631 ft / 802 m (AMSL)
Location -23.626693° -46.655377°
Runways 2
Magnetic Variation 21.348° W

METAR

SBSP 231500Z 15004KT 9999 SCT023 19/12 Q1025

Decode

TAF

TAF SBSP 231002Z 2312/2412 11005KT 8000 NSCTX21/2317Z TN12/2409Z BECMG 2314/2316 15006KT BECMG 2318/2320 16010KT BECMG 2321/2323 15006KT BECMG 2401/2403 14002KT 4000 BR BECMG 2405/2407 12002KT PROB30 2407/2411 1500 BR BKN005 RMK PGM

Decode

Departure Runways

ID Width Length Bearing (true) Bearing (mag) Surface Threshold Offset Overrun Length
17L 147 ft / 45 m 4,726 ft / 1,441 m 147.28° 168.63° Asphalt 0 ft / 0 m 220 ft / 67 m
17R 147 ft / 45 m 6,406 ft / 1,953 m 147.39° 168.74° Asphalt 413 ft / 126 m 0 ft / 0 m
35L 147 ft / 45 m 6,406 ft / 1,953 m 327.38° 348.73° Asphalt 200 ft / 61 m 0 ft / 0 m
35R 147 ft / 45 m 4,726 ft / 1,441 m 327.28° 348.63° Asphalt 0 ft / 0 m 0 ft / 0 m

SBRP

Details ICAO SBRP (RAO)
Name LEITE LOPES
Region Brazil
Timezone America/Sao_Paulo (UTC-3.0)
Stats Elevation 1,802 ft / 549 m (AMSL)
Location -21.134166° -47.774189°
Runways 1
Magnetic Variation 21.257° W

METAR

SBRP 231500Z 10002KT CAVOK 25/08 Q1021

Decode

TAF

TAF SBRP 231002Z 2312/2412 10004KT CAVOK TX27/2318Z TN09/2409Z BECMG 2319/2321 14005KT BECMG 2323/2401 12002KT RMK PGM

Decode

Destination Runways

ID Width Length Bearing (true) Bearing (mag) Surface Threshold Offset Overrun Length
18 115 ft / 35 m 6,918 ft / 2,109 m 163.40° 184.66° Asphalt 657 ft / 200 m 0 ft / 0 m
36 115 ft / 35 m 6,918 ft / 2,109 m 343.40° 4.66° Asphalt 328 ft / 100 m 0 ft / 0 m

Popular Alternatives